Time;durP1;ratioP1;P1;durP2;ratioP2;P2;SDS_P1;SDS_P2;PMS_P1;PMS_P2;Temp;Humidity;BMP_temperature;BMP_pressure;BME280_temperature;BME280_humidity;BME280_pressure;Samples;Min_cycle;Max_cycle;Signal;HPM_P1;HPM_P2
2021/11/06 00:01:26;;;;;;;0.47;0.38;;;19.90;33.70;20.30;94853.00;;;;10395011;28;47087;-60
2021/11/06 00:06:27;;;;;;;0.30;0.30;;;19.90;33.60;20.30;94856.00;;;;10393600;28;46137;-60
2021/11/06 00:11:28;;;;;;;0.45;0.32;;;19.90;33.60;20.30;94860.00;;;;10394702;28;45393;-61
2021/11/06 00:16:29;;;;;;;0.30;0.30;;;19.90;33.60;20.30;94859.00;;;;10447954;22;46199;-62
2021/11/06 00:21:29;;;;;;;0.35;0.30;;;19.90;33.50;20.40;94863.00;;;;10444595;28;45293;-60
2021/11/06 00:26:30;;;;;;;0.47;0.30;;;19.90;33.50;20.30;94844.00;;;;10407100;28;45540;-60
2021/11/06 00:31:31;;;;;;;0.35;0.22;;;19.90;33.40;20.30;94853.00;;;;10408050;28;45476;-59
2021/11/06 00:36:31;;;;;;;0.30;0.22;;;19.90;33.40;20.30;94846.00;;;;10435443;28;46410;-66
2021/11/06 00:41:33;;;;;;;0.25;0.20;;;19.90;33.30;20.30;94866.00;;;;10436177;28;45239;-60
2021/11/06 00:46:34;;;;;;;0.25;0.20;;;19.90;33.40;20.30;94871.00;;;;10433933;28;47824;-59
2021/11/06 00:51:35;;;;;;;0.30;0.30;;;19.90;33.30;20.30;94861.00;;;;10436435;28;46655;-60
2021/11/06 00:56:35;;;;;;;0.17;0.17;;;19.90;33.30;20.30;94858.00;;;;10432787;28;45215;-59
2021/11/06 01:01:37;;;;;;;0.45;0.30;;;19.90;33.20;20.30;94864.00;;;;10433958;28;45470;-60
2021/11/06 01:06:38;;;;;;;0.32;0.30;;;19.90;33.30;20.30;94858.00;;;;10432699;28;45203;-59
2021/11/06 01:11:39;;;;;;;0.80;0.40;;;19.90;33.20;20.30;94872.00;;;;10432141;28;45444;-60
2021/11/06 01:16:40;;;;;;;0.40;0.30;;;19.90;33.20;20.30;94867.00;;;;10432492;28;45463;-60
2021/11/06 01:21:42;;;;;;;0.47;0.30;;;19.90;33.20;20.30;94859.00;;;;10433202;28;47230;-59
2021/11/06 01:26:43;;;;;;;0.10;0.10;;;19.90;33.10;20.30;94861.00;;;;10434874;28;45481;-60
2021/11/06 01:31:43;;;;;;;0.30;0.30;;;19.90;33.10;20.30;94846.00;;;;10433598;28;46595;-61
2021/11/06 01:36:44;;;;;;;0.52;0.30;;;19.90;33.00;20.30;94852.00;;;;10434709;28;45579;-59
2021/11/06 01:41:45;;;;;;;0.38;0.30;;;19.90;33.10;20.30;94860.00;;;;10433625;28;48032;-62
2021/11/06 01:46:45;;;;;;;0.40;0.40;;;19.80;33.00;20.30;94849.00;;;;10431789;28;45401;-58
2021/11/06 01:51:51;;;;;;;0.70;0.30;;;19.90;33.00;20.30;94832.00;;;;10433365;28;45231;-61
2021/11/06 01:56:54;;;;;;;0.52;0.40;;;19.90;33.00;20.30;94840.00;;;;10434134;28;46615;-60
2021/11/06 02:01:56;;;;;;;0.40;0.30;;;19.90;33.00;20.30;94832.00;;;;10426948;28;45335;-60
2021/11/06 02:06:56;;;;;;;0.30;0.30;;;19.80;32.90;20.30;94829.00;;;;10431314;28;46820;-59
2021/11/06 02:11:58;;;;;;;1.13;0.65;;;19.90;32.90;20.30;94839.00;;;;10434526;28;45375;-61
2021/11/06 02:16:58;;;;;;;0.70;0.50;;;19.90;33.70;20.30;94835.00;;;;10431497;28;45488;-61
2021/11/06 02:22:01;;;;;;;1.13;0.57;;;19.90;32.90;20.20;94832.00;;;;10431869;28;46331;-59
2021/11/06 02:27:02;;;;;;;0.73;0.40;;;19.80;32.80;20.30;94832.00;;;;10432241;28;47795;-59
2021/11/06 02:32:06;;;;;;;1.42;0.60;;;19.80;32.80;20.30;94833.00;;;;10431325;28;46419;-61
2021/11/06 02:37:07;;;;;;;1.35;0.75;;;19.90;32.90;20.20;94825.00;;;;10430495;28;46429;-60
2021/11/06 02:42:09;;;;;;;1.23;0.75;;;19.90;32.90;20.20;94833.00;;;;10432105;28;46282;-58
2021/11/06 02:47:10;;;;;;;1.25;0.68;;;19.80;32.80;20.30;94821.00;;;;10430330;28;45997;-58
2021/11/06 02:52:12;;;;;;;1.00;0.65;;;19.80;32.80;20.20;94829.00;;;;10394402;28;45259;-60
2021/11/06 02:57:13;;;;;;;1.02;0.73;;;19.90;32.80;20.20;94832.00;;;;10397517;28;46423;-60
2021/11/06 03:02:13;;;;;;;1.20;0.70;;;19.80;32.80;20.30;94821.00;;;;10397215;28;46093;-60
2021/11/06 03:07:14;;;;;;;2.15;0.80;;;19.80;32.80;20.30;94818.00;;;;10396996;28;45564;-58
2021/11/06 03:12:16;;;;;;;1.27;0.70;;;19.80;32.70;20.20;94824.00;;;;10395689;28;45233;-60
2021/11/06 03:17:17;;;;;;;1.15;0.60;;;19.80;32.70;20.20;94826.00;;;;10395742;28;45462;-60
2021/11/06 03:22:18;;;;;;;0.90;0.50;;;19.80;32.70;20.20;94833.00;;;;10409402;28;47323;-59
2021/11/06 03:27:19;;;;;;;1.00;0.50;;;19.80;32.60;20.20;94805.00;;;;10434710;28;48351;-59
2021/11/06 03:32:20;;;;;;;0.40;0.40;;;19.80;32.70;20.20;94808.00;;;;10436377;28;45175;-61
2021/11/06 03:37:21;;;;;;;1.08;0.57;;;19.80;33.40;20.20;94818.00;;;;10436295;28;46875;-60
2021/11/06 03:42:21;;;;;;;1.20;0.70;;;19.80;32.70;20.20;94824.00;;;;10436117;28;45311;-60
2021/11/06 03:47:22;;;;;;;1.20;0.55;;;19.80;32.70;20.20;94816.00;;;;10415054;28;47401;-59
2021/11/06 03:52:23;;;;;;;0.52;0.40;;;19.80;32.70;20.20;94807.00;;;;10394237;28;46749;-59
2021/11/06 03:57:24;;;;;;;1.10;0.52;;;19.80;32.70;20.20;94827.00;;;;10394616;28;45337;-61
2021/11/06 04:02:25;;;;;;;0.50;0.40;;;19.80;32.60;20.20;94823.00;;;;10377059;28;47201;-60
2021/11/06 04:07:25;;;;;;;1.15;0.50;;;19.80;32.60;20.20;94816.00;;;;10393453;28;45547;-59
2021/11/06 04:12:26;;;;;;;0.52;0.40;;;19.80;32.60;20.20;94831.00;;;;10377135;28;48339;-60
2021/11/06 04:17:27;;;;;;;0.55;0.40;;;19.80;32.70;20.20;94827.00;;;;10394166;28;45439;-61
2021/11/06 04:22:28;;;;;;;0.65;0.35;;;19.70;32.50;20.20;94850.00;;;;10392244;28;45295;-61
2021/11/06 04:27:29;;;;;;;0.43;0.30;;;19.70;32.50;20.20;94840.00;;;;10391909;28;47212;-61
2021/11/06 04:32:29;;;;;;;0.70;0.50;;;19.70;32.50;20.20;94825.00;;;;10394142;28;45363;-58
2021/11/06 04:37:30;;;;;;;0.85;0.60;;;19.70;32.50;20.20;94839.00;;;;10395233;28;46445;-61
2021/11/06 04:42:31;;;;;;;0.63;0.40;;;19.70;32.40;20.20;94835.00;;;;10395022;28;46455;-59
2021/11/06 04:47:32;;;;;;;0.55;0.40;;;19.70;32.40;20.20;94842.00;;;;10393454;28;47951;-58
2021/11/06 04:52:35;;;;;;;0.88;0.50;;;19.70;32.30;20.20;94848.00;;;;10393839;28;45577;-60
2021/11/06 04:57:36;;;;;;;0.88;0.50;;;19.70;32.30;20.20;94841.00;;;;10393844;28;45343;-59
2021/11/06 05:02:36;;;;;;;0.90;0.60;;;19.70;32.30;20.10;94840.00;;;;10394211;28;46228;-58
2021/11/06 05:07:37;;;;;;;0.40;0.35;;;19.70;32.30;20.20;94838.00;;;;10394110;28;46035;-59
2021/11/06 05:12:39;;;;;;;0.50;0.30;;;19.70;32.30;20.20;94849.00;;;;10394167;28;45263;-58
2021/11/06 05:17:40;;;;;;;0.50;0.38;;;19.80;32.40;20.30;94843.00;;;;10394661;28;45244;-60
2021/11/06 05:22:41;;;;;;;1.10;0.50;;;19.80;32.30;20.30;94852.00;;;;10409067;28;45580;-60
2021/11/06 05:27:41;;;;;;;0.60;0.45;;;19.90;32.40;20.30;94845.00;;;;10432991;28;45226;-59
2021/11/06 05:32:42;;;;;;;0.52;0.30;;;19.90;32.30;20.30;94855.00;;;;10432912;28;47776;-60
2021/11/06 05:37:43;;;;;;;0.82;0.40;;;19.90;32.30;20.30;94857.00;;;;10432287;28;45315;-60
2021/11/06 05:42:44;;;;;;;1.45;0.57;;;19.90;32.20;20.30;94854.00;;;;10430629;28;48253;-60
2021/11/06 05:47:44;;;;;;;0.63;0.40;;;19.90;32.20;20.30;94856.00;;;;10432036;28;45351;-60
2021/11/06 05:52:45;;;;;;;0.65;0.40;;;19.90;32.20;20.30;94838.00;;;;10430339;28;46961;-60
2021/11/06 05:57:46;;;;;;;0.60;0.43;;;19.90;32.20;20.30;94852.00;;;;10431939;28;45445;-59
2021/11/06 06:02:48;;;;;;;0.57;0.50;;;19.90;32.20;20.20;94862.00;;;;10432414;28;46211;-60
2021/11/06 06:07:48;;;;;;;0.63;0.50;;;19.80;32.20;20.20;94852.00;;;;10431260;28;45354;-60
2021/11/06 06:12:53;;;;;;;0.57;0.50;;;19.80;32.30;20.20;94855.00;;;;10433102;28;45541;-61
2021/11/06 06:17:54;;;;;;;0.60;0.50;;;19.80;32.20;20.20;94860.00;;;;10431395;28;45583;-59
2021/11/06 06:22:55;;;;;;;1.75;0.50;;;19.80;32.30;20.30;94865.00;;;;10412963;28;46167;-60
2021/11/06 06:27:56;;;;;;;0.30;0.30;;;19.80;32.30;20.30;94868.00;;;;10397996;28;45177;-60
2021/11/06 06:32:57;;;;;;;0.63;0.50;;;19.90;32.30;20.30;94874.00;;;;10398076;28;47031;-60
2021/11/06 06:38:00;;;;;;;0.60;0.50;;;19.90;32.20;20.30;94878.00;;;;10398234;28;46715;-60
2021/11/06 06:43:01;;;;;;;0.82;0.60;;;19.80;32.30;20.30;94886.00;;;;10398058;28;45146;-61
2021/11/06 06:48:02;;;;;;;0.60;0.47;;;19.90;32.20;20.30;94884.00;;;;10398126;28;46018;-59
2021/11/06 06:53:03;;;;;;;0.65;0.50;;;19.80;32.10;20.30;94870.00;;;;10397755;28;45354;-59
2021/11/06 06:58:04;;;;;;;0.80;0.52;;;19.80;32.10;20.20;94885.00;;;;10396711;28;45380;-60
2021/11/06 07:03:05;;;;;;;0.30;0.30;;;19.80;32.70;20.20;94877.00;;;;10397898;28;46153;-59
2021/11/06 07:08:06;;;;;;;0.55;0.47;;;19.80;32.00;20.20;94879.00;;;;10396177;28;46477;-60
2021/11/06 07:13:07;;;;;;;0.57;0.57;;;19.80;32.10;20.20;94909.00;;;;10395495;28;46963;-61
2021/11/06 07:18:08;;;;;;;0.40;0.40;;;19.80;32.10;20.30;94911.00;;;;10397450;28;45537;-59
2021/11/06 07:23:09;;;;;;;0.43;0.43;;;19.80;32.20;20.30;94916.00;;;;10397761;28;46503;-59
2021/11/06 07:28:09;;;;;;;1.20;0.60;;;19.80;32.30;20.30;94912.00;;;;10396014;28;47116;-59
2021/11/06 07:33:10;;;;;;;0.98;0.50;;;19.90;32.50;20.40;94939.00;;;;10397058;28;45474;-58
2021/11/06 07:38:13;;;;;;;0.98;0.60;;;19.90;32.80;20.30;94940.00;;;;10397025;28;46166;-60
2021/11/06 07:43:14;;;;;;;0.63;0.60;;;19.90;32.50;20.40;94942.00;;;;10396999;28;47152;-58
2021/11/06 07:48:14;;;;;;;2.75;0.50;;;19.90;32.30;20.40;94931.00;;;;10395795;28;45314;-61
2021/11/06 07:53:15;;;;;;;1.02;0.60;;;20.00;32.40;20.40;94938.00;;;;10396789;28;45218;-60
2021/11/06 07:58:16;;;;;;;1.73;0.50;;;19.90;32.30;20.40;94935.00;;;;10396399;28;45631;-58
2021/11/06 08:03:16;;;;;;;0.85;0.57;;;20.00;32.40;20.50;94945.00;;;;10396349;28;46449;-61
2021/11/06 08:08:17;;;;;;;5.40;3.50;;;20.00;32.40;19.20;94966.00;;;;10396483;28;45201;-58
2021/11/06 08:13:18;;;;;;;2.35;1.55;;;19.60;30.10;20.00;94958.00;;;;10395182;28;45460;-58
2021/11/06 08:18:18;;;;;;;2.30;1.13;;;19.60;32.30;20.30;94959.00;;;;10395291;28;45370;-57
2021/11/06 08:23:19;;;;;;;3.55;1.20;;;19.70;32.30;20.40;94972.00;;;;10417020;28;46347;-58
2021/11/06 08:28:21;;;;;;;1.75;1.08;;;19.90;32.30;20.40;94977.00;;;;10435418;28;45158;-58
2021/11/06 08:33:22;;;;;;;2.45;1.30;;;20.00;32.30;20.50;94968.00;;;;10435067;28;47958;-59
2021/11/06 08:38:23;;;;;;;1.73;1.27;;;20.00;32.30;20.40;94974.00;;;;10435318;28;46472;-59
2021/11/06 08:43:24;;;;;;;5.78;2.28;;;20.00;32.20;20.40;94957.00;;;;10436768;28;45403;-58
2021/11/06 08:48:25;;;;;;;4.45;2.97;;;20.00;31.60;20.30;94980.00;;;;10434816;28;46412;-58
2021/11/06 08:53:25;;;;;;;3.85;2.75;;;19.90;31.20;20.20;94966.00;;;;10430226;28;45530;-58
2021/11/06 08:58:27;;;;;;;3.47;2.10;;;19.90;30.70;20.30;94959.00;;;;10433482;28;47332;-59
2021/11/06 09:03:29;;;;;;;2.50;2.00;;;19.90;31.20;20.40;94963.00;;;;10433627;28;45282;-59
2021/11/06 09:08:33;;;;;;;1.80;1.50;;;20.00;31.50;20.50;94966.00;;;;10433106;28;45346;-59
2021/11/06 09:13:34;;;;;;;1.98;1.42;;;20.00;31.30;20.50;94972.00;;;;10433080;28;45469;-59
2021/11/06 09:18:39;;;;;;;2.15;1.50;;;20.10;31.60;20.50;94978.00;;;;10435054;28;45419;-58
2021/11/06 09:23:42;;;;;;;3.03;1.45;;;20.10;31.80;20.60;94969.00;;;;10421883;28;45216;-59
2021/11/06 09:28:43;;;;;;;1.35;1.15;;;20.10;32.00;20.60;94975.00;;;;10433605;28;46984;-59
2021/11/06 09:33:45;;;;;;;1.38;1.10;;;20.10;32.20;20.60;94959.00;;;;10425312;28;47212;-58
2021/11/06 09:38:46;;;;;;;1.65;1.25;;;20.20;32.30;20.70;94974.00;;;;10410030;28;45279;-59
2021/11/06 09:43:48;;;;;;;1.50;1.20;;;20.20;32.50;20.70;94974.00;;;;10428576;28;45524;-60
2021/11/06 09:48:50;;;;;;;1.48;1.05;;;20.20;32.50;20.70;94963.00;;;;10434397;28;46423;-61
2021/11/06 09:53:54;;;;;;;1.85;1.20;;;20.20;32.60;20.70;94974.00;;;;10421992;28;45243;-59
2021/11/06 09:59:00;;;;;;;1.50;1.17;;;20.30;32.80;20.70;94966.00;;;;10418271;28;45491;-59
2021/11/06 10:04:08;;;;;;;1.65;1.00;;;20.30;32.80;20.70;94957.00;;;;10431966;28;45324;-59
2021/11/06 10:09:09;;;;;;;2.15;0.90;;;20.30;32.90;20.80;94983.00;;;;10432341;28;45453;-59
2021/11/06 10:14:16;;;;;;;1.50;0.80;;;20.40;33.20;20.80;94969.00;;;;10436586;28;45236;-62
2021/11/06 10:19:39;;;;;;;1.58;0.70;;;20.40;33.40;20.90;94961.00;;;;10472304;28;45585;-59
2021/11/06 10:24:51;;;;;;;1.00;0.70;;;20.50;33.80;20.90;94950.00;;;;10475752;28;45253;-63
2021/11/06 10:30:31;;;;;;;1.00;0.85;;;20.50;34.10;21.00;94949.00;;;;10474407;28;45363;-63
2021/11/06 10:35:36;;;;;;;1.27;0.80;;;20.60;34.40;21.00;94933.00;;;;10473190;28;47088;-62
2021/11/06 10:40:48;;;;;;;0.93;0.50;;;20.60;34.70;21.00;94929.00;;;;10414412;28;45667;-59
2021/11/06 10:45:58;;;;;;;1.20;0.80;;;20.60;34.50;21.10;94946.00;;;;10389418;28;45331;-59
2021/11/06 10:51:12;;;;;;;1.42;0.90;;;20.60;34.20;21.00;94922.00;;;;10397750;28;46656;-59
2021/11/06 10:56:13;;;;;;;1.10;0.80;;;20.60;34.10;21.00;94919.00;;;;10388516;28;45224;-59
2021/11/06 11:01:21;;;;;;;1.83;0.80;;;20.60;34.00;21.00;94912.00;;;;10389710;28;45367;-58
2021/11/06 11:06:33;;;;;;;0.73;0.65;;;20.60;34.00;21.00;94902.00;;;;10388449;28;45332;-59
2021/11/06 11:11:34;;;;;;;1.58;0.50;;;20.60;33.90;21.10;94903.00;;;;10389277;28;46151;-59
2021/11/06 11:16:36;;;;;;;1.45;0.63;;;20.60;33.80;21.10;94862.00;;;;10396310;28;45357;-61
2021/11/06 11:21:43;;;;;;;0.60;0.60;;;20.70;34.20;21.10;94893.00;;;;10412419;28;46043;-59
2021/11/06 11:26:51;;;;;;;;;;;20.70;34.40;21.20;94881.00;;;;10414661;28;46355;-60
2021/11/06 11:31:53;;;;;;;2.38;0.80;;;20.70;34.20;21.10;94883.00;;;;10418507;28;45454;-58
2021/11/06 11:36:54;;;;;;;1.60;0.70;;;20.70;34.10;21.10;94870.00;;;;10435886;28;47015;-60
2021/11/06 11:42:38;;;;;;;1.70;0.60;;;20.70;34.10;21.10;94872.00;;;;10436799;28;45345;-59
2021/11/06 11:47:44;;;;;;;1.42;0.70;;;20.60;34.00;21.10;94856.00;;;;10420805;28;46065;-59
2021/11/06 11:52:52;;;;;;;1.40;0.70;;;20.70;34.00;21.10;94863.00;;;;10394705;28;47026;-59
2021/11/06 11:58:07;;;;;;;0.88;0.60;;;20.70;34.00;21.10;94860.00;;;;10398422;28;46049;-59
2021/11/06 12:03:09;;;;;;;3.03;0.80;;;20.70;34.00;21.10;94867.00;;;;10417116;28;46164;-59
2021/11/06 12:08:10;;;;;;;0.80;0.50;;;20.60;33.90;21.10;94863.00;;;;10426678;28;45598;-58
2021/11/06 12:13:26;;;;;;;1.33;0.75;;;20.60;33.80;21.10;94863.00;;;;10472831;22;46575;-60
2021/11/06 12:18:33;;;;;;;0.93;0.60;;;20.60;33.80;21.10;94869.00;;;;10417407;28;46503;-60
2021/11/06 12:23:33;;;;;;;;;;;20.60;33.80;21.10;94867.00;;;;10411943;28;45246;-60
2021/11/06 12:28:34;;;;;;;0.93;0.80;;;20.70;33.90;21.10;94872.00;;;;10435705;28;45305;-62
2021/11/06 12:33:45;;;;;;;1.52;0.95;;;20.60;33.60;21.10;94861.00;;;;10412578;28;46940;-64
2021/11/06 12:38:46;;;;;;;2.03;1.00;;;20.70;33.70;21.20;94853.00;;;;10417439;28;47145;-62
2021/11/06 12:43:52;;;;;;;1.08;0.63;;;20.70;33.80;21.10;94845.00;;;;10433635;28;47097;-60
2021/11/06 12:49:03;;;;;;;0.73;0.60;;;20.70;33.70;21.10;94842.00;;;;10418621;28;45396;-60
2021/11/06 12:54:10;;;;;;;2.25;0.90;;;20.70;33.80;21.10;94841.00;;;;10392260;28;45366;-60
2021/11/06 12:59:16;;;;;;;1.00;0.70;;;20.70;33.80;21.10;94830.00;;;;10391815;28;45543;-60
2021/11/06 13:04:18;;;;;;;;;;;20.70;33.70;21.10;94838.00;;;;10392849;28;45885;-61
2021/11/06 13:09:32;;;;;;;2.13;0.80;;;20.70;33.80;21.10;94840.00;;;;10408746;28;46421;-60
2021/11/06 13:15:00;;;;;;;2.25;0.80;;;20.70;33.80;21.10;94840.00;;;;10374400;28;47438;-62
2021/11/06 13:20:05;;;;;;;0.65;0.65;;;20.70;33.80;21.10;94839.00;;;;10391393;28;46428;-60
2021/11/06 13:25:26;;;;;;;2.83;0.60;;;20.70;33.80;21.10;94844.00;;;;10423627;28;45616;-61
2021/11/06 13:31:04;;;;;;;2.22;0.80;;;20.70;33.80;21.10;94833.00;;;;10432694;28;45590;-60
2021/11/06 13:36:10;;;;;;;0.90;0.60;;;20.70;33.80;21.10;94835.00;;;;10414321;28;47576;-60
2021/11/06 13:41:22;;;;;;;1.00;0.70;;;20.70;33.80;21.10;94818.00;;;;10433021;28;45215;-61
2021/11/06 13:46:56;;;;;;;0.80;0.50;;;20.70;33.70;21.10;94822.00;;;;10432793;28;45368;-60
2021/11/06 13:52:02;;;;;;;0.88;0.60;;;20.70;33.60;21.10;94810.00;;;;10376041;28;47166;-60
2021/11/06 13:57:24;;;;;;;2.47;0.75;;;20.70;33.60;21.10;94812.00;;;;10390184;28;45452;-61
2021/11/06 14:02:28;;;;;;;4.40;1.27;;;20.60;33.30;21.10;94811.00;;;;10390014;28;45121;-60
2021/11/06 14:07:38;;;;;;;1.65;0.70;;;20.60;33.10;21.10;94796.00;;;;10391049;28;46156;-61
2021/11/06 14:12:42;;;;;;;1.73;0.70;;;20.60;33.00;21.10;94799.00;;;;10390298;28;46168;-62
2021/11/06 14:18:03;;;;;;;1.20;0.77;;;20.60;33.10;21.10;94809.00;;;;10390032;28;46055;-61
2021/11/06 14:23:16;;;;;;;1.73;0.70;;;20.60;33.10;21.10;94790.00;;;;10404800;28;47869;-61
2021/11/06 14:28:20;;;;;;;0.77;0.65;;;20.60;33.00;21.10;94789.00;;;;10431203;28;45379;-60
2021/11/06 14:33:34;;;;;;;6.07;0.80;;;20.70;33.10;21.20;94793.00;;;;10414363;28;47339;-61
2021/11/06 14:39:12;;;;;;;2.95;0.70;;;20.70;33.30;21.10;94799.00;;;;10431301;28;45271;-61
2021/11/06 14:44:12;;;;;;;;;;;20.70;33.30;21.10;94792.00;;;;10421648;28;46120;-61
2021/11/06 14:49:16;;;;;;;4.03;0.70;;;20.70;33.20;21.10;94785.00;;;;10419349;28;47071;-60
2021/11/06 14:54:17;;;;;;;2.53;0.50;;;20.70;33.20;21.10;94783.00;;;;10437840;28;45545;-61
2021/11/06 14:59:29;;;;;;;2.65;0.80;;;20.70;33.20;21.10;94782.00;;;;10438251;28;46125;-61
2021/11/06 15:04:44;;;;;;;1.23;0.50;;;20.60;32.90;21.10;94789.00;;;;10439187;28;45468;-61
2021/11/06 15:09:45;;;;;;;2.90;0.70;;;20.70;33.00;21.10;94777.00;;;;10438000;28;45241;-61
2021/11/06 15:14:48;;;;;;;0.40;0.40;;;20.70;32.90;21.10;94781.00;;;;10437155;28;46289;-61
2021/11/06 15:19:50;;;;;;;3.45;0.60;;;20.60;32.90;21.10;94783.00;;;;10430888;28;45177;-61
2021/11/06 15:24:53;;;;;;;0.98;0.50;;;20.60;32.90;21.10;94790.00;;;;10430411;28;45597;-61
2021/11/06 15:29:54;;;;;;;0.82;0.60;;;20.60;32.90;21.10;94778.00;;;;10436975;28;46131;-61
2021/11/06 15:34:54;;;;;;;0.55;0.50;;;20.70;32.80;21.10;94781.00;;;;10437907;28;46502;-61
2021/11/06 15:39:55;;;;;;;0.98;0.60;;;20.60;32.80;21.10;94765.00;;;;10437661;28;45123;-61
2021/11/06 15:44:56;;;;;;;1.25;0.50;;;20.70;32.80;21.10;94768.00;;;;10436374;28;47458;-61
2021/11/06 15:49:58;;;;;;;1.02;0.60;;;20.70;32.70;21.10;94766.00;;;;10452480;28;45610;-61
2021/11/06 15:55:02;;;;;;;1.35;0.60;;;20.70;32.70;21.10;94775.00;;;;10437888;28;45179;-61
2021/11/06 16:00:07;;;;;;;1.15;0.60;;;20.70;32.70;21.10;94752.00;;;;10452804;28;45942;-61
2021/11/06 16:05:08;;;;;;;0.80;0.60;;;20.60;32.70;21.10;94755.00;;;;10453405;28;45154;-61
2021/11/06 16:10:10;;;;;;;1.13;0.70;;;20.70;32.70;21.10;94769.00;;;;10437296;28;46045;-61
2021/11/06 16:15:11;;;;;;;0.80;0.50;;;20.70;32.70;21.10;94755.00;;;;10452954;28;46058;-60
2021/11/06 16:20:16;;;;;;;0.65;0.60;;;20.70;32.70;21.10;94766.00;;;;10437681;28;45562;-62
2021/11/06 16:25:17;;;;;;;0.60;0.50;;;20.70;32.60;21.10;94762.00;;;;10450414;28;45216;-60
2021/11/06 16:30:17;;;;;;;1.00;0.68;;;20.60;32.50;21.10;94754.00;;;;10435096;28;46026;-60
2021/11/06 16:35:18;;;;;;;1.08;0.88;;;20.70;32.50;21.10;94757.00;;;;10452850;28;45459;-61
2021/11/06 16:40:19;;;;;;;1.25;0.90;;;20.70;32.60;21.10;94759.00;;;;10452892;28;45376;-60
2021/11/06 16:45:20;;;;;;;0.88;0.70;;;20.70;32.50;21.10;94759.00;;;;10452256;28;45436;-60
2021/11/06 16:50:21;;;;;;;1.15;0.80;;;20.70;32.50;21.10;94757.00;;;;10436687;28;45705;-60
2021/11/06 16:55:22;;;;;;;1.05;0.80;;;20.70;32.40;21.10;94776.00;;;;10435228;28;45270;-61
2021/11/06 17:00:22;;;;;;;1.40;0.93;;;20.70;32.40;21.10;94767.00;;;;10436214;28;45544;-62
2021/11/06 17:05:23;;;;;;;1.60;0.70;;;20.60;32.30;21.10;94765.00;;;;10434591;28;45193;-61
2021/11/06 17:10:32;;;;;;;1.13;0.80;;;20.70;32.30;21.10;94761.00;;;;10432234;28;47880;-62
2021/11/06 17:15:33;;;;;;;1.15;0.93;;;20.70;32.30;21.20;94780.00;;;;10449000;28;46391;-62
2021/11/06 17:20:35;;;;;;;0.85;0.80;;;20.70;32.30;21.20;94773.00;;;;10450225;28;45255;-63
2021/11/06 17:25:37;;;;;;;1.02;0.80;;;20.70;32.30;21.20;94774.00;;;;10413938;28;45328;-61
2021/11/06 17:30:38;;;;;;;1.20;0.90;;;20.70;32.30;21.20;94748.00;;;;10408100;28;46354;-62
2021/11/06 17:35:40;;;;;;;0.80;0.80;;;20.70;32.30;21.10;94751.00;;;;10407446;28;46271;-62
2021/11/06 17:40:41;;;;;;;1.52;0.60;;;20.70;32.30;21.20;94753.00;;;;10407593;28;45220;-61
2021/11/06 17:45:42;;;;;;;1.35;0.82;;;20.80;32.20;21.20;94762.00;;;;10390912;28;47590;-61
2021/11/06 17:51:01;;;;;;;1.00;0.80;;;20.70;32.20;21.20;94752.00;;;;10421471;28;48087;-61
2021/11/06 17:56:03;;;;;;;1.00;0.82;;;20.70;32.20;21.20;94771.00;;;;10431777;28;46045;-60
2021/11/06 18:01:04;;;;;;;1.38;0.80;;;20.70;32.20;21.30;94748.00;;;;10404945;28;46071;-64
2021/11/06 18:06:05;;;;;;;1.15;0.88;;;20.80;33.10;21.30;94771.00;;;;10406147;28;46838;-64
2021/11/06 18:11:07;;;;;;;1.35;1.00;;;20.80;33.20;21.30;94745.00;;;;10431382;28;45227;-63
2021/11/06 18:16:08;;;;;;;1.50;0.90;;;20.90;33.10;21.30;94724.00;;;;10425696;22;45314;-61
2021/11/06 18:21:09;;;;;;;1.08;0.80;;;20.90;33.00;21.40;94737.00;;;;10407240;28;48061;-64
2021/11/06 18:26:10;;;;;;;1.20;0.90;;;20.90;33.10;21.40;94738.00;;;;10408557;28;47489;-62
2021/11/06 18:31:11;;;;;;;1.40;0.90;;;20.90;33.00;21.40;94736.00;;;;10381262;28;47384;-62
2021/11/06 18:36:12;;;;;;;1.15;0.80;;;21.00;33.40;21.40;94726.00;;;;10380254;28;48181;-59
2021/11/06 18:41:13;;;;;;;1.10;0.90;;;21.00;33.20;21.40;94734.00;;;;10397632;28;46499;-63
2021/11/06 18:46:20;;;;;;;1.30;1.00;;;21.00;33.10;21.40;94732.00;;;;10397129;28;45312;-58
2021/11/06 18:51:25;;;;;;;1.40;0.90;;;21.00;33.00;21.40;94739.00;;;;10371897;28;45344;-59
2021/11/06 18:56:26;;;;;;;1.63;0.90;;;21.00;32.90;21.40;94732.00;;;;10357351;28;46951;-63
2021/11/06 19:01:27;;;;;;;1.20;1.00;;;21.00;33.70;21.40;94729.00;;;;10372160;28;47881;-62
2021/11/06 19:06:29;;;;;;;1.58;0.90;;;21.00;32.90;21.40;94709.00;;;;10372018;28;48277;-62
2021/11/06 19:11:29;;;;;;;1.20;0.90;;;21.00;32.80;21.40;94732.00;;;;10372106;28;45198;-62
2021/11/06 19:16:30;;;;;;;1.83;1.02;;;21.10;32.70;21.50;94729.00;;;;10371374;28;45381;-63
2021/11/06 19:21:31;;;;;;;2.28;1.00;;;21.00;32.60;21.50;94719.00;;;;10356734;28;46157;-63
2021/11/06 19:26:32;;;;;;;1.60;1.10;;;21.10;32.60;21.40;94701.00;;;;10356263;28;45501;-60
2021/11/06 19:31:32;;;;;;;1.65;1.13;;;21.00;32.50;21.50;94710.00;;;;10355389;28;46488;-60
2021/11/06 19:36:38;;;;;;;1.67;1.10;;;21.10;32.50;21.50;94693.00;;;;10355617;28;46080;-62
2021/11/06 19:41:38;;;;;;;1.73;1.10;;;21.10;32.50;21.50;94681.00;;;;10376340;28;47118;-59
2021/11/06 19:46:48;;;;;;;1.40;1.00;;;21.10;32.10;21.50;94689.00;;;;10391343;28;45216;-59
2021/11/06 19:51:50;;;;;;;1.35;0.95;;;21.10;32.20;21.50;94696.00;;;;10395335;28;47061;-59
2021/11/06 19:56:52;;;;;;;3.10;1.10;;;21.00;32.00;21.40;94681.00;;;;10396412;28;45323;-59
2021/11/06 20:01:54;;;;;;;1.30;0.90;;;21.00;31.90;21.40;94679.00;;;;10394824;28;47467;-59
2021/11/06 20:06:54;;;;;;;1.35;1.02;;;21.00;31.80;21.40;94667.00;;;;10394710;28;45184;-59
2021/11/06 20:11:55;;;;;;;1.50;0.98;;;21.00;31.80;21.40;94679.00;;;;10396371;28;45464;-59
2021/11/06 20:16:56;;;;;;;1.65;1.15;;;20.90;31.50;21.40;94670.00;;;;10395210;28;46557;-59
2021/11/06 20:21:57;;;;;;;3.60;2.25;;;20.90;31.50;21.30;94660.00;;;;10395279;28;45519;-59
2021/11/06 20:26:58;;;;;;;3.70;2.03;;;20.90;30.50;21.30;94663.00;;;;10395300;28;46253;-57
2021/11/06 20:31:59;;;;;;;3.05;1.85;;;20.80;29.50;21.20;94659.00;;;;10393938;28;45557;-58
2021/11/06 20:37:00;;;;;;;2.45;1.40;;;20.80;29.80;21.20;94661.00;;;;10387063;28;45539;-58
2021/11/06 20:42:00;;;;;;;2.45;1.40;;;20.80;29.80;21.30;94667.00;;;;10371729;28;45247;-59
2021/11/06 20:47:04;;;;;;;2.30;1.33;;;20.80;30.00;21.30;94652.00;;;;10378342;28;45345;-60
2021/11/06 20:52:05;;;;;;;2.78;1.38;;;20.80;30.60;21.30;94652.00;;;;10410418;28;45308;-58
2021/11/06 20:57:08;;;;;;;1.83;1.45;;;20.80;30.00;21.30;94661.00;;;;10408878;28;45400;-60
2021/11/06 21:02:10;;;;;;;3.30;1.50;;;20.80;30.00;21.30;94669.00;;;;10390578;28;45514;-58
2021/11/06 21:07:11;;;;;;;2.97;1.50;;;20.80;30.10;21.30;94665.00;;;;10392741;28;45256;-58
2021/11/06 21:12:18;;;;;;;2.65;1.48;;;20.80;30.20;21.30;94667.00;;;;10368945;28;45196;-59
2021/11/06 21:22:32;;;;;;;2.50;1.67;;;20.80;30.20;21.30;94655.00;;;;10364936;28;45229;-60
2021/11/06 21:27:33;;;;;;;1.52;1.27;;;20.80;30.20;21.30;94648.00;;;;10389072;28;46089;-60
2021/11/06 21:32:34;;;;;;;2.42;1.30;;;20.80;30.20;21.20;94648.00;;;;10378784;28;45350;-60
2021/11/06 21:37:40;;;;;;;1.75;1.30;;;20.80;30.00;21.20;94643.00;;;;10351386;28;46016;-59
2021/11/06 21:42:45;;;;;;;1.63;1.30;;;20.80;30.10;21.20;94650.00;;;;10351902;28;46022;-59
2021/11/06 21:47:47;;;;;;;1.80;1.30;;;20.80;30.10;21.20;94643.00;;;;10372634;28;48049;-59
2021/11/06 21:52:49;;;;;;;2.08;1.25;;;20.80;30.00;21.20;94642.00;;;;10374522;28;48211;-60
2021/11/06 21:57:51;;;;;;;2.03;1.10;;;20.70;30.00;21.10;94639.00;;;;10389847;28;45285;-60
2021/11/06 22:02:53;;;;;;;1.38;1.00;;;20.70;30.00;21.10;94633.00;;;;10390952;28;47266;-59
2021/11/06 22:07:59;;;;;;;2.28;1.08;;;20.70;30.10;21.10;94629.00;;;;10373552;28;47273;-60
2021/11/06 22:13:05;;;;;;;1.50;1.00;;;20.70;30.10;21.10;94625.00;;;;10390850;28;45155;-61
2021/11/06 22:18:06;;;;;;;;;;;20.60;29.90;21.10;94636.00;;;;10391181;28;45564;-59